Portada
METAR-TAF:

METAR-TAF

Aeroports :

Forrest, Austràlia

latitud: 30-50-18S, longitud: 128-06-54E, altitud: 156 m

Observació

L'informe es va fer fa 48 minuts, a les 20:00 UTC
Vent 7 kt del Est
Temperatura 7°C
Humitat 87%
Pressió 1021 hPa
Visibilitat 10 km o més

METAR: YFRT 132000Z AUTO 10007KT 9999 // NCD 07/05 Q1021

Hora: 04:48 (20:48 UTC)

Pronòstic

L'informe es va fer fa 1 hora i 46 minuts, a les 19:02 UTC
Pronòstic vàlid del 13 a les 20 UTC al 14 a les 08 UTC
Vent 7 kt del Est
Visibilitat 10 km o més
sense núvols per sota de 1500 mi sense presència de cumulonimbus.
A partir de les 13 a les 2200 UTC
Vent 11 kt del Nord/Nord-Est
Visibilitat 10 km o més
sense núvols per sota de 1500 mi sense presència de cumulonimbus.
A partir de les 14 a les 0600 UTC
Vent 5 kt del Oest/Sud-Oest
Visibilitat 10 km o més
sense núvols per sota de 1500 mi sense presència de cumulonimbus.

TAF: YFRT 131902Z 1320/1408 08007KT CAVOK FM132200 03011KT CAVOK FM140600 24005KT CAVOK

Observacions i pronòstics meteorològics de més de 4000 aeroports (METAR i TAF).

Les estacions disponibles són els punts grocs i vermells al mapa.

Posi el ratolí al punt desitjat per veure el nom de l'estació.

Feu clic per veure les observacions i els pronòstics meteorològics.

Per canviar el mapa: feu clic els botons verds amb una creu de color negre per apropar; al botó verd amb un guió per allunyar la imatge; o en les fletxes verdes per a mapes adjacents.


METAR-TAF: